createdAt,value
2023-03-20T00:04:44.759Z,70.55
2023-03-20T00:09:46.401Z,70.86
2023-03-20T00:14:48.215Z,71.35
2023-03-20T00:19:49.870Z,71.58
2023-03-20T00:24:51.556Z,71.62
2023-03-20T00:29:53.248Z,72.32
2023-03-20T00:34:54.866Z,72.91
2023-03-20T00:39:56.451Z,72.66
2023-03-20T00:44:59.701Z,73.42
2023-03-20T00:50:01.509Z,72.76
2023-03-20T00:55:03.207Z,72.59
2023-03-20T01:00:13.201Z,71.80
2023-03-20T01:05:14.902Z,71.74
2023-03-20T01:10:17.837Z,71.89
2023-03-20T01:15:27.880Z,72.66
2023-03-20T01:20:30.973Z,72.69
2023-03-20T01:25:32.720Z,71.99
2023-03-20T01:30:34.343Z,72.05
2023-03-20T01:35:36.230Z,72.29
2023-03-20T01:40:49.683Z,71.70
2023-03-20T01:45:55.704Z,72.63
2023-03-20T01:50:57.401Z,73.08
2023-03-20T01:56:01.465Z,72.88
2023-03-20T02:01:04.829Z,73.04
2023-03-20T02:06:07.607Z,72.41
2023-03-20T02:11:11.812Z,72.44
2023-03-20T02:16:15.818Z,72.55
2023-03-20T02:21:36.098Z,72.88
2023-03-20T02:26:56.018Z,72.78
2023-03-20T02:32:13.142Z,73.20
2023-03-20T02:37:23.626Z,72.84
2023-03-20T02:42:37.892Z,72.89
2023-03-20T02:47:49.450Z,73.23
2023-03-20T02:53:06.683Z,74.75
2023-03-20T02:58:26.729Z,72.94
2023-03-20T03:03:43.248Z,73.66
2023-03-20T03:08:49.986Z,73.37
2023-03-20T03:13:53.348Z,72.72
2023-03-20T03:19:18.628Z,72.76
2023-03-20T03:24:51.430Z,73.36
2023-03-20T03:30:01.001Z,73.26
2023-03-20T03:35:05.616Z,72.87
2023-03-20T03:40:37.765Z,74.00
2023-03-20T03:45:48.392Z,72.04
2023-03-20T03:51:07.879Z,73.08
2023-03-20T03:56:13.946Z,72.75
2023-03-20T04:01:17.745Z,73.52
2023-03-20T04:06:20.422Z,73.71
2023-03-20T04:11:24.872Z,73.47
2023-03-20T04:16:27.106Z,73.99
2023-03-20T04:21:28.803Z,73.71
2023-03-20T04:26:30.566Z,74.00
2023-03-20T04:31:32.912Z,73.73
2023-03-20T04:36:34.623Z,72.74
2023-03-20T04:41:36.480Z,73.05
2023-03-20T04:46:38.131Z,73.60
2023-03-20T04:51:39.760Z,74.28
2023-03-20T04:56:41.352Z,73.63
2023-03-20T05:01:43.003Z,74.86
2023-03-20T05:06:48.439Z,74.48
2023-03-20T05:11:50.077Z,73.67
2023-03-20T05:16:51.992Z,74.15
2023-03-20T05:21:53.621Z,74.94
2023-03-20T05:26:55.587Z,74.25
2023-03-20T05:31:57.211Z,74.90
2023-03-20T05:36:58.906Z,74.40
2023-03-20T05:42:00.685Z,73.48
2023-03-20T05:47:02.296Z,74.42
2023-03-20T05:52:03.972Z,74.91
2023-03-20T05:57:05.629Z,74.38
2023-03-20T06:02:07.465Z,74.65
2023-03-20T06:07:10.651Z,75.47
2023-03-20T06:12:12.706Z,76.45
2023-03-20T06:17:14.454Z,73.11
2023-03-20T06:22:16.227Z,70.14
2023-03-20T06:27:17.993Z,69.02
2023-03-20T06:32:19.539Z,67.68
2023-03-20T06:37:22.065Z,68.60
2023-03-20T06:42:23.700Z,67.71
2023-03-20T06:47:25.459Z,67.22
2023-03-20T06:52:27.102Z,67.71
2023-03-20T06:57:28.716Z,67.68
2023-03-20T07:02:31.171Z,67.90
2023-03-20T07:07:32.790Z,67.05
2023-03-20T07:12:34.533Z,66.77
2023-03-20T07:17:36.319Z,67.07
2023-03-20T07:22:38.009Z,67.01
2023-03-20T07:27:40.111Z,66.48
2023-03-20T07:32:41.735Z,67.17
2023-03-20T07:37:43.653Z,66.86
2023-03-20T07:42:47.525Z,66.47
2023-03-20T07:47:49.459Z,68.71
2023-03-20T07:52:54.049Z,65.10
2023-03-20T07:57:55.850Z,65.92
2023-03-20T08:02:57.921Z,65.51
2023-03-20T08:07:59.718Z,66.33
2023-03-20T08:13:01.461Z,64.86
2023-03-20T08:18:03.173Z,64.22
2023-03-20T08:23:04.836Z,63.68
2023-03-20T08:28:06.469Z,63.98
2023-03-20T08:33:08.145Z,65.44
2023-03-20T08:38:13.112Z,66.82
2023-03-20T08:43:14.722Z,65.10
2023-03-20T08:48:16.554Z,65.67
2023-03-20T08:53:19.384Z,65.44
2023-03-20T08:58:23.102Z,66.42
2023-03-20T09:03:25.618Z,65.91
2023-03-20T09:08:27.274Z,67.88
2023-03-20T09:13:29.020Z,64.72
2023-03-20T09:18:30.877Z,64.50
2023-03-20T09:23:32.758Z,64.89
2023-03-20T09:28:34.486Z,65.16
2023-03-20T09:33:36.207Z,65.57
2023-03-20T09:38:37.976Z,65.38
2023-03-20T09:43:42.536Z,64.09
2023-03-20T09:48:54.755Z,64.80
2023-03-20T09:54:12.291Z,62.40
2023-03-20T09:59:16.210Z,61.86
2023-03-20T10:04:17.982Z,62.13
2023-03-20T10:09:26.996Z,62.78
2023-03-20T10:14:36.403Z,58.96
2023-03-20T10:19:51.031Z,57.88
2023-03-20T10:25:02.928Z,55.53
2023-03-20T10:30:42.294Z,55.40
2023-03-20T10:35:43.922Z,56.01
2023-03-20T10:40:46.195Z,56.19
2023-03-20T10:45:54.195Z,55.17
2023-03-20T10:50:59.014Z,55.44
2023-03-20T10:56:06.491Z,54.97
2023-03-20T11:01:08.262Z,56.37
2023-03-20T11:06:20.566Z,55.30
2023-03-20T11:11:24.494Z,55.79
2023-03-20T11:16:31.804Z,55.78
2023-03-20T11:21:35.723Z,54.63
2023-03-20T11:26:42.221Z,52.76
2023-03-20T11:31:43.980Z,52.55
2023-03-20T11:37:08.603Z,54.05
2023-03-20T11:42:26.960Z,54.44
2023-03-20T11:47:32.492Z,53.43
2023-03-20T11:52:37.198Z,51.61
2023-03-20T11:57:43.782Z,53.91
2023-03-20T12:02:46.916Z,53.04
2023-03-20T12:07:52.235Z,53.16
2023-03-20T12:13:02.605Z,51.94
2023-03-20T12:18:26.441Z,52.36
2023-03-20T12:23:52.402Z,54.14
2023-03-20T12:29:05.106Z,54.26
2023-03-20T12:34:16.533Z,53.87
2023-03-20T12:39:28.327Z,54.55
2023-03-20T12:44:53.606Z,54.33
2023-03-20T12:49:57.956Z,54.91
2023-03-20T12:55:17.291Z,53.62
2023-03-20T13:00:34.278Z,54.14
2023-03-20T13:05:42.127Z,53.56
2023-03-20T13:11:34.700Z,54.21
2023-03-20T13:16:56.134Z,55.67
2023-03-20T13:22:08.796Z,53.66
2023-03-20T13:27:13.534Z,54.11
2023-03-20T13:32:36.511Z,53.28
2023-03-20T13:37:45.305Z,50.68
2023-03-20T13:43:16.326Z,54.84
2023-03-20T13:48:24.089Z,52.49
2023-03-20T13:53:51.159Z,52.92
2023-03-20T13:59:01.186Z,52.00
2023-03-20T14:04:03.669Z,52.12
2023-03-20T14:09:32.712Z,52.57
2023-03-20T14:14:47.652Z,52.83
2023-03-20T14:19:50.856Z,52.31
2023-03-20T14:25:23.847Z,52.02
2023-03-20T14:30:31.337Z,53.04
2023-03-20T14:35:44.395Z,53.14
2023-03-20T14:41:16.861Z,51.65
2023-03-20T14:46:26.064Z,52.58
2023-03-20T14:51:33.583Z,53.21
2023-03-20T14:56:35.396Z,53.57
2023-03-20T15:01:39.819Z,52.58
2023-03-20T15:06:56.804Z,53.50
2023-03-20T15:12:04.305Z,54.41
2023-03-20T15:17:07.356Z,53.71
2023-03-20T15:22:17.756Z,54.21
2023-03-20T15:27:20.501Z,53.96
2023-03-20T15:32:22.514Z,53.79
2023-03-20T15:37:25.575Z,53.72
2023-03-20T15:42:27.726Z,60.12
2023-03-20T15:47:30.418Z,53.56
2023-03-20T15:52:40.363Z,53.65
2023-03-20T15:57:47.453Z,53.33
2023-03-20T16:02:50.529Z,56.48
2023-03-20T16:07:52.214Z,53.45
2023-03-20T16:12:57.260Z,60.42
2023-03-20T16:18:01.660Z,55.39
2023-03-20T16:23:07.571Z,54.63
2023-03-20T16:28:14.386Z,55.00
2023-03-20T16:33:17.987Z,61.41
2023-03-20T16:38:19.575Z,63.29
2023-03-20T16:43:30.337Z,63.76
2023-03-20T16:48:34.582Z,63.12
2023-03-20T16:53:41.384Z,63.98
2023-03-20T16:58:45.832Z,62.59
2023-03-20T17:03:51.268Z,62.65
2023-03-20T17:09:04.321Z,62.72
2023-03-20T17:14:06.360Z,62.80
2023-03-20T17:19:16.584Z,63.52
2023-03-20T17:24:18.808Z,63.93
2023-03-20T17:29:20.476Z,64.59
2023-03-20T17:34:22.337Z,64.79
2023-03-20T17:39:24.889Z,65.19
2023-03-20T17:44:27.713Z,65.01
2023-03-20T17:49:29.731Z,65.15
2023-03-20T17:54:31.671Z,65.07
2023-03-20T17:59:33.984Z,64.75
2023-03-20T18:04:36.186Z,65.47
2023-03-20T18:09:38.076Z,65.82
2023-03-20T18:14:40.636Z,65.05
2023-03-20T18:19:44.218Z,65.52
2023-03-20T18:24:48.106Z,65.23
2023-03-20T18:29:50.913Z,65.46
2023-03-20T18:34:52.992Z,65.33
2023-03-20T18:39:55.720Z,65.54
2023-03-20T18:44:58.244Z,64.46
2023-03-20T18:50:01.128Z,64.48
2023-03-20T18:55:03.631Z,64.97
2023-03-20T19:00:21.214Z,65.33
2023-03-20T19:05:26.172Z,66.08
2023-03-20T19:10:28.770Z,65.44
2023-03-20T19:15:36.250Z,66.24
2023-03-20T19:20:46.114Z,66.17
2023-03-20T19:25:51.170Z,67.03
2023-03-20T19:30:55.681Z,66.98
2023-03-20T19:36:03.243Z,66.81
2023-03-20T19:41:08.639Z,67.14
2023-03-20T19:46:25.496Z,66.42
2023-03-20T19:51:39.496Z,64.35
2023-03-20T19:56:42.203Z,64.85
2023-03-20T20:01:46.089Z,64.90
2023-03-20T20:06:49.426Z,65.27
2023-03-20T20:11:52.015Z,65.84
2023-03-20T20:16:54.476Z,66.11
2023-03-20T20:27:20.737Z,66.35
2023-03-20T20:32:26.605Z,66.88
2023-03-20T20:38:10.332Z,66.62
2023-03-20T20:42:54.670Z,67.51
2023-03-20T20:47:56.904Z,67.55
2023-03-20T20:52:59.986Z,67.83
2023-03-20T20:58:04.047Z,68.05
2023-03-20T21:03:06.555Z,67.35
2023-03-20T21:08:08.535Z,67.04
2023-03-20T21:13:12.213Z,67.21
2023-03-20T21:18:16.221Z,67.35
2023-03-20T21:23:18.166Z,67.54
2023-03-20T21:28:20.225Z,67.15
2023-03-20T21:33:22.786Z,66.19
2023-03-20T21:43:47.530Z,66.38
2023-03-20T21:49:41.069Z,67.24
2023-03-20T22:00:05.361Z,67.01
2023-03-20T22:11:18.263Z,66.79
2023-03-20T22:16:18.896Z,67.05
2023-03-20T22:42:53.715Z,66.94
2023-03-20T22:47:54.124Z,67.85
2023-03-20T22:52:55.936Z,68.26
2023-03-20T22:58:06.734Z,67.34
2023-03-20T23:03:20.024Z,68.46
2023-03-20T23:08:28.074Z,68.21
2023-03-20T23:13:29.792Z,69.18
2023-03-20T23:18:31.612Z,69.43
2023-03-20T23:23:33.788Z,69.49
2023-03-20T23:28:36.959Z,68.23
2023-03-20T23:33:39.523Z,69.01
2023-03-20T23:38:41.469Z,68.73
2023-03-20T23:43:43.286Z,69.26
2023-03-20T23:48:45.003Z,68.92
2023-03-20T23:53:46.597Z,69.13
2023-03-20T23:58:59.442Z,68.77
